sensor_id;sensor_type;location;lat;lon;timestamp;pressure;altitude;pressure_sealevel;temperature;humidity
3844;BME280;1937;51.444;6.484;2023-07-29T00:02:23;70390.81;;;19.90;100.00
3844;BME280;1937;51.444;6.484;2023-07-29T00:04:50;70435.28;;;19.90;100.00
3844;BME280;1937;51.444;6.484;2023-07-29T00:07:16;70409.13;;;19.90;100.00
3844;BME280;1937;51.444;6.484;2023-07-29T00:09:43;70452.97;;;20.02;100.00
3844;BME280;1937;51.444;6.484;2023-07-29T00:12:09;70493.38;;;20.03;100.00
3844;BME280;1937;51.444;6.484;2023-07-29T00:14:37;70472.06;;;20.08;100.00
3844;BME280;1937;51.444;6.484;2023-07-29T00:17:04;70580.91;;;20.18;100.00
3844;BME280;1937;51.444;6.484;2023-07-29T00:19:30;70509.06;;;20.10;100.00
3844;BME280;1937;51.444;6.484;2023-07-29T00:21:58;70521.53;;;20.10;100.00
3844;BME280;1937;51.444;6.484;2023-07-29T00:24:25;70580.91;;;20.31;100.00
3844;BME280;1937;51.444;6.484;2023-07-29T00:26:51;70495.19;;;20.12;100.00
3844;BME280;1937;51.444;6.484;2023-07-29T00:29:18;70565.81;;;20.18;100.00
3844;BME280;1937;51.444;6.484;2023-07-29T00:31:46;70532.78;;;20.15;100.00
3844;BME280;1937;51.444;6.484;2023-07-29T00:34:12;70575.88;;;20.22;100.00
3844;BME280;1937;51.444;6.484;2023-07-29T00:36:42;70548.31;;;20.10;100.00
3844;BME280;1937;51.444;6.484;2023-07-29T00:39:09;70612.72;;;20.14;100.00
3844;BME280;1937;51.444;6.484;2023-07-29T00:41:35;70551.94;;;20.07;100.00
3844;BME280;1937;51.444;6.484;2023-07-29T00:44:02;70560.38;;;20.00;100.00
3844;BME280;1937;51.444;6.484;2023-07-29T00:46:29;70579.91;;;20.08;100.00
3844;BME280;1937;51.444;6.484;2023-07-29T00:48:57;70619.13;;;20.15;100.00
3844;BME280;1937;51.444;6.484;2023-07-29T00:51:23;70552.72;;;20.12;100.00
3844;BME280;1937;51.444;6.484;2023-07-29T00:53:50;70602.03;;;20.22;100.00
3844;BME280;1937;51.444;6.484;2023-07-29T00:56:17;70598.41;;;20.19;100.00
3844;BME280;1937;51.444;6.484;2023-07-29T00:58:44;70618.72;;;20.06;100.00
3844;BME280;1937;51.444;6.484;2023-07-29T01:01:10;70599.81;;;20.05;100.00
3844;BME280;1937;51.444;6.484;2023-07-29T01:03:37;70658.78;;;20.24;100.00
3844;BME280;1937;51.444;6.484;2023-07-29T01:06:11;70665.88;;;20.32;100.00
3844;BME280;1937;51.444;6.484;2023-07-29T01:08:46;70668.50;;;20.32;100.00
3844;BME280;1937;51.444;6.484;2023-07-29T01:11:25;70627.63;;;20.35;100.00
3844;BME280;1937;51.444;6.484;2023-07-29T01:14:01;70580.28;;;20.17;100.00
3844;BME280;1937;51.444;6.484;2023-07-29T01:16:34;70613.50;;;20.19;100.00
3844;BME280;1937;51.444;6.484;2023-07-29T01:19:06;70652.16;;;20.18;100.00
3844;BME280;1937;51.444;6.484;2023-07-29T01:21:35;70612.69;;;20.27;100.00
3844;BME280;1937;51.444;6.484;2023-07-29T01:24:03;70649.53;;;20.31;100.00
3844;BME280;1937;51.444;6.484;2023-07-29T01:26:30;70651.34;;;20.26;100.00
3844;BME280;1937;51.444;6.484;2023-07-29T01:28:56;70642.28;;;20.25;100.00
3844;BME280;1937;51.444;6.484;2023-07-29T01:31:27;70658.00;;;20.25;100.00
3844;BME280;1937;51.444;6.484;2023-07-29T01:34:00;70599.22;;;20.24;100.00
3844;BME280;1937;51.444;6.484;2023-07-29T01:36:31;70665.84;;;20.19;100.00
3844;BME280;1937;51.444;6.484;2023-07-29T01:39:03;70647.13;;;20.23;100.00
3844;BME280;1937;51.444;6.484;2023-07-29T01:41:30;70677.91;;;20.29;100.00
3844;BME280;1937;51.444;6.484;2023-07-29T01:43:57;70676.13;;;20.34;100.00
3844;BME280;1937;51.444;6.484;2023-07-29T01:46:24;70710.75;;;20.41;100.00
3844;BME280;1937;51.444;6.484;2023-07-29T01:48:50;70669.69;;;20.46;100.00
3844;BME280;1937;51.444;6.484;2023-07-29T01:51:17;70642.72;;;20.41;100.00
3844;BME280;1937;51.444;6.484;2023-07-29T01:53:43;70649.94;;;20.34;100.00
3844;BME280;1937;51.444;6.484;2023-07-29T01:56:11;70662.03;;;20.44;100.00
3844;BME280;1937;51.444;6.484;2023-07-29T01:58:38;70622.56;;;20.33;100.00
3844;BME280;1937;51.444;6.484;2023-07-29T02:01:04;70683.38;;;20.40;100.00
3844;BME280;1937;51.444;6.484;2023-07-29T02:03:31;70637.25;;;20.30;100.00
3844;BME280;1937;51.444;6.484;2023-07-29T02:05:58;70609.06;;;20.24;100.00
3844;BME280;1937;51.444;6.484;2023-07-29T02:08:25;70645.09;;;20.23;100.00
3844;BME280;1937;51.444;6.484;2023-07-29T02:10:51;70685.59;;;20.37;100.00
3844;BME280;1937;51.444;6.484;2023-07-29T02:13:19;70637.25;;;20.30;100.00
3844;BME280;1937;51.444;6.484;2023-07-29T02:15:48;70607.47;;;20.20;100.00
3844;BME280;1937;51.444;6.484;2023-07-29T02:18:14;70651.13;;;20.28;100.00
3844;BME280;1937;51.444;6.484;2023-07-29T02:20:41;70644.09;;;20.27;100.00
3844;BME280;1937;51.444;6.484;2023-07-29T02:23:14;70683.56;;;20.31;100.00
3844;BME280;1937;51.444;6.484;2023-07-29T02:25:40;70672.25;;;20.26;100.00
3844;BME280;1937;51.444;6.484;2023-07-29T02:28:07;70714.16;;;20.33;100.00
3844;BME280;1937;51.444;6.484;2023-07-29T02:30:36;70697.06;;;20.34;100.00
3844;BME280;1937;51.444;6.484;2023-07-29T02:33:02;70631.22;;;20.25;100.00
3844;BME280;1937;51.444;6.484;2023-07-29T02:35:29;70691.19;;;20.27;100.00
3844;BME280;1937;51.444;6.484;2023-07-29T02:37:55;70666.03;;;20.23;100.00
3844;BME280;1937;51.444;6.484;2023-07-29T02:40:22;70652.56;;;20.14;100.00
3844;BME280;1937;51.444;6.484;2023-07-29T02:42:50;70698.25;;;20.28;100.00
3844;BME280;1937;51.444;6.484;2023-07-29T02:45:16;70697.44;;;20.23;100.00
3844;BME280;1937;51.444;6.484;2023-07-29T02:47:44;70704.47;;;20.25;100.00
3844;BME280;1937;51.444;6.484;2023-07-29T02:50:12;70692.00;;;20.25;100.00
3844;BME280;1937;51.444;6.484;2023-07-29T02:52:38;70722.44;;;20.35;100.00
3844;BME280;1937;51.444;6.484;2023-07-29T02:55:06;70697.84;;;20.32;100.00
3844;BME280;1937;51.444;6.484;2023-07-29T02:57:32;70737.72;;;20.39;100.00
3844;BME280;1937;51.444;6.484;2023-07-29T02:59:59;70687.38;;;20.32;100.00
3844;BME280;1937;51.444;6.484;2023-07-29T03:02:25;70647.31;;;20.21;100.00
3844;BME280;1937;51.444;6.484;2023-07-29T03:04:54;70645.28;;;20.15;100.00
3844;BME280;1937;51.444;6.484;2023-07-29T03:07:20;70603.22;;;19.97;100.00
3844;BME280;1937;51.444;6.484;2023-07-29T03:09:47;70603.63;;;19.80;100.00
3844;BME280;1937;51.444;6.484;2023-07-29T03:12:13;70634.19;;;19.81;100.00
3844;BME280;1937;51.444;6.484;2023-07-29T03:14:40;70599.59;;;19.54;100.00
3844;BME280;1937;51.444;6.484;2023-07-29T03:17:07;70557.72;;;19.35;100.00
3844;BME280;1937;51.444;6.484;2023-07-29T03:19:33;70585.66;;;19.36;100.00
3844;BME280;1937;51.444;6.484;2023-07-29T03:22:01;70694.22;;;19.42;100.00
3844;BME280;1937;51.444;6.484;2023-07-29T03:24:28;70605.53;;;19.27;100.00
3844;BME280;1937;51.444;6.484;2023-07-29T03:26:55;70619.75;;;19.14;100.00
3844;BME280;1937;51.444;6.484;2023-07-29T03:29:21;70716.06;;;19.25;100.00
3844;BME280;1937;51.444;6.484;2023-07-29T03:31:48;70708.78;;;19.12;100.00
3844;BME280;1937;51.444;6.484;2023-07-29T03:34:15;70722.03;;;19.17;100.00
3844;BME280;1937;51.444;6.484;2023-07-29T03:36:41;70741.13;;;19.15;100.00
3844;BME280;1937;51.444;6.484;2023-07-29T03:39:09;70814.91;;;19.22;100.00
3844;BME280;1937;51.444;6.484;2023-07-29T03:41:36;70739.44;;;18.99;100.00
3844;BME280;1937;51.444;6.484;2023-07-29T03:44:02;70760.13;;;19.01;100.00
3844;BME280;1937;51.444;6.484;2023-07-29T03:46:30;70852.59;;;19.10;100.00
3844;BME280;1937;51.444;6.484;2023-07-29T03:48:57;70905.31;;;19.19;100.00
3844;BME280;1937;51.444;6.484;2023-07-29T03:51:24;70911.72;;;19.14;100.00
3844;BME280;1937;51.444;6.484;2023-07-29T03:53:50;70883.13;;;19.05;100.00
3844;BME280;1937;51.444;6.484;2023-07-29T03:56:18;70944.03;;;19.10;100.00
3844;BME280;1937;51.444;6.484;2023-07-29T03:58:46;70995.25;;;19.07;100.00
3844;BME280;1937;51.444;6.484;2023-07-29T04:01:13;70904.56;;;18.99;100.00
3844;BME280;1937;51.444;6.484;2023-07-29T04:03:40;70970.28;;;19.02;100.00
3844;BME280;1937;51.444;6.484;2023-07-29T04:06:06;70984.91;;;18.99;100.00
3844;BME280;1937;51.444;6.484;2023-07-29T04:08:33;70983.88;;;18.96;100.00
3844;BME280;1937;51.444;6.484;2023-07-29T04:11:00;71040.88;;;19.08;100.00
3844;BME280;1937;51.444;6.484;2023-07-29T04:13:28;71010.84;;;19.01;100.00
3844;BME280;1937;51.444;6.484;2023-07-29T04:15:54;70937.00;;;18.87;100.00
3844;BME280;1937;51.444;6.484;2023-07-29T04:18:21;70972.94;;;18.87;100.00
3844;BME280;1937;51.444;6.484;2023-07-29T04:20:47;71019.63;;;18.97;100.00
3844;BME280;1937;51.444;6.484;2023-07-29T04:23:14;71050.19;;;18.99;100.00
3844;BME280;1937;51.444;6.484;2023-07-29T04:25:41;70920.03;;;18.73;100.00
3844;BME280;1937;51.444;6.484;2023-07-29T04:28:07;70969.06;;;18.79;100.00
3844;BME280;1937;51.444;6.484;2023-07-29T04:30:35;70873.81;;;18.71;100.00
3844;BME280;1937;51.444;6.484;2023-07-29T04:33:02;70853.72;;;18.70;100.00
3844;BME280;1937;51.444;6.484;2023-07-29T04:35:29;70879.44;;;18.74;100.00
3844;BME280;1937;51.444;6.484;2023-07-29T04:37:55;70825.16;;;18.61;100.00
3844;BME280;1937;51.444;6.484;2023-07-29T04:40:22;70846.81;;;18.60;100.00
3844;BME280;1937;51.444;6.484;2023-07-29T04:42:49;70897.91;;;18.72;100.00
3844;BME280;1937;51.444;6.484;2023-07-29T04:45:15;70770.53;;;18.59;100.00
3844;BME280;1937;51.444;6.484;2023-07-29T04:47:43;70801.22;;;18.59;100.00
3844;BME280;1937;51.444;6.484;2023-07-29T04:50:10;70807.13;;;18.66;100.00
3844;BME280;1937;51.444;6.484;2023-07-29T04:52:36;70817.34;;;18.68;100.00
3844;BME280;1937;51.444;6.484;2023-07-29T04:55:04;70816.63;;;18.76;100.00
3844;BME280;1937;51.444;6.484;2023-07-29T04:57:30;70882.22;;;18.94;100.00
3844;BME280;1937;51.444;6.484;2023-07-29T04:59:57;70841.66;;;18.95;100.00
3844;BME280;1937;51.444;6.484;2023-07-29T05:02:24;70767.66;;;18.83;100.00
3844;BME280;1937;51.444;6.484;2023-07-29T05:04:52;70796.84;;;18.92;100.00
3844;BME280;1937;51.444;6.484;2023-07-29T05:07:18;70675.66;;;18.76;100.00
3844;BME280;1937;51.444;6.484;2023-07-29T05:09:45;70638.69;;;18.73;100.00
3844;BME280;1937;51.444;6.484;2023-07-29T05:12:12;70620.81;;;18.69;100.00
3844;BME280;1937;51.444;6.484;2023-07-29T05:14:38;70525.75;;;18.47;100.00
3844;BME280;1937;51.444;6.484;2023-07-29T05:17:05;70498.63;;;18.30;100.00
3844;BME280;1937;51.444;6.484;2023-07-29T05:19:32;70593.19;;;18.51;100.00
3844;BME280;1937;51.444;6.484;2023-07-29T05:22:00;70582.16;;;18.50;100.00
3844;BME280;1937;51.444;6.484;2023-07-29T05:24:26;70466.25;;;18.21;100.00
3844;BME280;1937;51.444;6.484;2023-07-29T05:26:53;70574.72;;;18.46;100.00
3844;BME280;1937;51.444;6.484;2023-07-29T05:29:20;70633.66;;;18.71;100.00
3844;BME280;1937;51.444;6.484;2023-07-29T05:31:47;70562.72;;;18.56;100.00
3844;BME280;1937;51.444;6.484;2023-07-29T05:34:13;70564.81;;;18.75;100.00
3844;BME280;1937;51.444;6.484;2023-07-29T05:36:40;70537.50;;;18.74;100.00
3844;BME280;1937;51.444;6.484;2023-07-29T05:39:08;70534.28;;;18.73;100.00
3844;BME280;1937;51.444;6.484;2023-07-29T05:41:35;70570.84;;;18.80;100.00
3844;BME280;1937;51.444;6.484;2023-07-29T05:44:01;70551.38;;;18.86;100.00
3844;BME280;1937;51.444;6.484;2023-07-29T05:46:28;70532.50;;;18.85;100.00
3844;BME280;1937;51.444;6.484;2023-07-29T05:48:54;70434.91;;;18.69;100.00
3844;BME280;1937;51.444;6.484;2023-07-29T05:51:21;70444.53;;;18.64;100.00
3844;BME280;1937;51.444;6.484;2023-07-29T05:53:48;70421.63;;;18.58;100.00
3844;BME280;1937;51.444;6.484;2023-07-29T05:56:15;70531.28;;;18.71;100.00
3844;BME280;1937;51.444;6.484;2023-07-29T05:58:42;70521.47;;;18.78;100.00
3844;BME280;1937;51.444;6.484;2023-07-29T06:01:09;70524.06;;;18.78;100.00
3844;BME280;1937;51.444;6.484;2023-07-29T06:03:36;70577.94;;;18.95;100.00
3844;BME280;1937;51.444;6.484;2023-07-29T06:06:02;70678.03;;;19.13;100.00
3844;BME280;1937;51.444;6.484;2023-07-29T06:08:29;70639.66;;;19.18;100.00
3844;BME280;1937;51.444;6.484;2023-07-29T06:10:58;70614.16;;;19.18;100.00
3844;BME280;1937;51.444;6.484;2023-07-29T06:13:26;70517.28;;;19.07;100.00
3844;BME280;1937;51.444;6.484;2023-07-29T06:15:52;70435.72;;;19.00;100.00
3844;BME280;1937;51.444;6.484;2023-07-29T06:18:19;70358.41;;;18.90;100.00
3844;BME280;1937;51.444;6.484;2023-07-29T06:20:46;70445.38;;;19.08;100.00
3844;BME280;1937;51.444;6.484;2023-07-29T06:23:12;70391.13;;;18.83;100.00
3844;BME280;1937;51.444;6.484;2023-07-29T06:25:39;70346.94;;;18.87;100.00
3844;BME280;1937;51.444;6.484;2023-07-29T06:28:06;70321.81;;;19.03;100.00
3844;BME280;1937;51.444;6.484;2023-07-29T06:30:33;70236.72;;;18.87;99.81
3844;BME280;1937;51.444;6.484;2023-07-29T06:33:00;70180.31;;;18.83;98.53
3844;BME280;1937;51.444;6.484;2023-07-29T06:35:28;70245.09;;;19.13;98.13
3844;BME280;1937;51.444;6.484;2023-07-29T06:37:55;70261.72;;;19.23;97.81
3844;BME280;1937;51.444;6.484;2023-07-29T06:40:21;70218.06;;;19.35;96.58
3844;BME280;1937;51.444;6.484;2023-07-29T06:42:48;70171.63;;;19.42;95.13
3844;BME280;1937;51.444;6.484;2023-07-29T06:45:15;70282.84;;;19.78;94.78
3844;BME280;1937;51.444;6.484;2023-07-29T06:47:44;70236.50;;;19.96;92.95
3844;BME280;1937;51.444;6.484;2023-07-29T06:50:11;70230.00;;;20.09;91.82
3844;BME280;1937;51.444;6.484;2023-07-29T06:52:39;70152.72;;;20.10;90.22
3844;BME280;1937;51.444;6.484;2023-07-29T06:55:06;70161.88;;;20.22;89.43
3844;BME280;1937;51.444;6.484;2023-07-29T06:57:33;70213.63;;;20.52;88.98
3844;BME280;1937;51.444;6.484;2023-07-29T07:00:00;70046.63;;;20.41;86.97
3844;BME280;1937;51.444;6.484;2023-07-29T07:02:26;70101.28;;;20.50;87.81
3844;BME280;1937;51.444;6.484;2023-07-29T07:04:57;70027.88;;;20.46;85.78
3844;BME280;1937;51.444;6.484;2023-07-29T07:07:23;70048.00;;;20.65;84.96
3844;BME280;1937;51.444;6.484;2023-07-29T07:09:51;69969.41;;;20.36;85.77
3844;BME280;1937;51.444;6.484;2023-07-29T07:12:18;70061.38;;;20.56;88.51
3844;BME280;1937;51.444;6.484;2023-07-29T07:14:44;70073.16;;;20.86;83.47
3844;BME280;1937;51.444;6.484;2023-07-29T07:17:11;69996.69;;;20.79;83.97
3844;BME280;1937;51.444;6.484;2023-07-29T07:19:37;69956.53;;;20.69;83.33
3844;BME280;1937;51.444;6.484;2023-07-29T07:22:05;69849.31;;;20.45;83.97
3844;BME280;1937;51.444;6.484;2023-07-29T07:24:32;69922.22;;;20.60;85.28
3844;BME280;1937;51.444;6.484;2023-07-29T07:26:59;69968.03;;;20.83;83.82
3844;BME280;1937;51.444;6.484;2023-07-29T07:29:25;70037.69;;;21.05;83.73
3844;BME280;1937;51.444;6.484;2023-07-29T07:31:53;69966.38;;;20.87;83.64
3844;BME280;1937;51.444;6.484;2023-07-29T07:34:20;69999.13;;;21.10;82.80
3844;BME280;1937;51.444;6.484;2023-07-29T07:36:47;69997.28;;;21.15;81.94
3844;BME280;1937;51.444;6.484;2023-07-29T07:39:15;70002.41;;;21.39;81.02
3844;BME280;1937;51.444;6.484;2023-07-29T07:41:42;70066.03;;;21.62;79.70
3844;BME280;1937;51.444;6.484;2023-07-29T07:44:09;70070.06;;;21.79;79.17
3844;BME280;1937;51.444;6.484;2023-07-29T07:46:36;70223.31;;;22.22;79.51
3844;BME280;1937;51.444;6.484;2023-07-29T07:49:02;70245.03;;;22.44;77.71
3844;BME280;1937;51.444;6.484;2023-07-29T07:51:29;70397.03;;;22.77;79.85
3844;BME280;1937;51.444;6.484;2023-07-29T07:53:56;70403.09;;;23.11;74.78
3844;BME280;1937;51.444;6.484;2023-07-29T07:56:24;70333.47;;;23.17;73.20
3844;BME280;1937;51.444;6.484;2023-07-29T07:58:50;70466.41;;;23.45;77.03
3844;BME280;1937;51.444;6.484;2023-07-29T08:01:17;70225.19;;;23.10;73.20
3844;BME280;1937;51.444;6.484;2023-07-29T08:03:43;70259.19;;;22.94;75.26
3844;BME280;1937;51.444;6.484;2023-07-29T08:06:10;70323.81;;;23.44;73.51
3844;BME280;1937;51.444;6.484;2023-07-29T08:08:37;70486.41;;;24.01;71.43
3844;BME280;1937;51.444;6.484;2023-07-29T08:11:03;70541.44;;;24.21;73.61
3844;BME280;1937;51.444;6.484;2023-07-29T08:13:31;70588.53;;;24.47;69.18
3844;BME280;1937;51.444;6.484;2023-07-29T08:15:58;70465.88;;;24.37;70.39
3844;BME280;1937;51.444;6.484;2023-07-29T08:18:24;70530.88;;;24.39;70.50
3844;BME280;1937;51.444;6.484;2023-07-29T08:20:52;70665.28;;;24.85;67.91
3844;BME280;1937;51.444;6.484;2023-07-29T08:23:20;70801.34;;;25.42;69.08
3844;BME280;1937;51.444;6.484;2023-07-29T08:25:51;70705.47;;;25.33;65.99
3844;BME280;1937;51.444;6.484;2023-07-29T08:28:18;70657.09;;;25.23;66.33
3844;BME280;1937;51.444;6.484;2023-07-29T08:30:46;70497.28;;;24.79;66.38
3844;BME280;1937;51.444;6.484;2023-07-29T08:33:13;70320.59;;;24.13;69.88
3844;BME280;1937;51.444;6.484;2023-07-29T08:35:39;70183.31;;;23.77;71.12
3844;BME280;1937;51.444;6.484;2023-07-29T08:38:06;70265.97;;;23.73;73.48
3844;BME280;1937;51.444;6.484;2023-07-29T08:40:34;70369.78;;;24.14;69.41
3844;BME280;1937;51.444;6.484;2023-07-29T08:43:04;70338.78;;;24.15;68.30
3844;BME280;1937;51.444;6.484;2023-07-29T08:45:32;70132.94;;;23.52;71.07
3844;BME280;1937;51.444;6.484;2023-07-29T08:48:02;69850.38;;;22.68;71.95
3844;BME280;1937;51.444;6.484;2023-07-29T08:50:32;69922.88;;;22.61;73.34
3844;BME280;1937;51.444;6.484;2023-07-29T08:52:59;69799.97;;;22.23;75.28
3844;BME280;1937;51.444;6.484;2023-07-29T08:55:27;69850.41;;;22.24;76.95
3844;BME280;1937;51.444;6.484;2023-07-29T08:57:54;69873.22;;;22.36;75.72
3844;BME280;1937;51.444;6.484;2023-07-29T09:00:21;69891.00;;;22.36;74.71
3844;BME280;1937;51.444;6.484;2023-07-29T09:02:48;69861.63;;;22.18;75.28
3844;BME280;1937;51.444;6.484;2023-07-29T09:05:16;69849.34;;;22.16;75.88
3844;BME280;1937;51.444;6.484;2023-07-29T09:07:44;69801.41;;;22.00;76.82
3844;BME280;1937;51.444;6.484;2023-07-29T09:10:13;69917.34;;;22.29;76.24
3844;BME280;1937;51.444;6.484;2023-07-29T09:12:39;69987.91;;;22.60;75.61
3844;BME280;1937;51.444;6.484;2023-07-29T09:15:07;69965.69;;;22.48;75.97
3844;BME280;1937;51.444;6.484;2023-07-29T09:17:34;70023.63;;;22.75;74.92
3844;BME280;1937;51.444;6.484;2023-07-29T09:20:01;69952.94;;;22.62;74.54
3844;BME280;1937;51.444;6.484;2023-07-29T09:22:30;69924.28;;;22.49;74.04
3844;BME280;1937;51.444;6.484;2023-07-29T09:28:13;69874.16;;;22.28;75.59
3844;BME280;1937;51.444;6.484;2023-07-29T09:30:41;69931.66;;;22.30;76.40
3844;BME280;1937;51.444;6.484;2023-07-29T09:33:09;69950.88;;;22.51;75.64
3844;BME280;1937;51.444;6.484;2023-07-29T09:35:37;69928.47;;;22.52;75.35
3844;BME280;1937;51.444;6.484;2023-07-29T09:38:06;69947.22;;;22.55;75.02
3844;BME280;1937;51.444;6.484;2023-07-29T09:40:36;69957.13;;;22.65;74.56
3844;BME280;1937;51.444;6.484;2023-07-29T09:43:04;70007.53;;;22.83;74.21
3844;BME280;1937;51.444;6.484;2023-07-29T09:45:33;70031.91;;;22.89;73.14
3844;BME280;1937;51.444;6.484;2023-07-29T09:48:00;70073.97;;;23.11;72.79
3844;BME280;1937;51.444;6.484;2023-07-29T09:50:27;70258.78;;;23.78;70.90
3844;BME280;1937;51.444;6.484;2023-07-29T09:52:55;70610.94;;;24.88;69.73
3844;BME280;1937;51.444;6.484;2023-07-29T09:55:25;70651.59;;;25.25;65.96
3844;BME280;1937;51.444;6.484;2023-07-29T09:57:54;70706.97;;;25.43;65.23
3844;BME280;1937;51.444;6.484;2023-07-29T10:00:21;70770.81;;;25.67;65.73
3844;BME280;1937;51.444;6.484;2023-07-29T10:02:48;71044.81;;;26.62;62.94
3844;BME280;1937;51.444;6.484;2023-07-29T10:05:15;71028.56;;;26.60;61.35
3844;BME280;1937;51.444;6.484;2023-07-29T10:07:41;71117.06;;;26.96;61.07
3844;BME280;1937;51.444;6.484;2023-07-29T10:10:09;71051.28;;;26.99;59.36
3844;BME280;1937;51.444;6.484;2023-07-29T10:12:39;71132.19;;;27.26;59.67
3844;BME280;1937;51.444;6.484;2023-07-29T10:15:08;71094.00;;;27.19;59.74
3844;BME280;1937;51.444;6.484;2023-07-29T10:17:36;70878.53;;;26.71;59.32
3844;BME280;1937;51.444;6.484;2023-07-29T10:20:04;70928.16;;;26.71;60.18
3844;BME280;1937;51.444;6.484;2023-07-29T10:22:36;70676.03;;;26.05;62.07
3844;BME280;1937;51.444;6.484;2023-07-29T10:25:04;70608.41;;;25.80;62.39
3844;BME280;1937;51.444;6.484;2023-07-29T10:27:38;70668.78;;;25.88;63.14
3844;BME280;1937;51.444;6.484;2023-07-29T10:30:08;70785.25;;;26.26;61.47
3844;BME280;1937;51.444;6.484;2023-07-29T10:32:36;70740.75;;;26.11;61.58
3844;BME280;1937;51.444;6.484;2023-07-29T10:35:05;70950.13;;;26.69;61.58
3844;BME280;1937;51.444;6.484;2023-07-29T10:37:32;71109.19;;;27.25;59.64
3844;BME280;1937;51.444;6.484;2023-07-29T10:39:59;71272.34;;;27.75;57.27
3844;BME280;1937;51.444;6.484;2023-07-29T10:42:26;71074.00;;;27.38;57.73
3844;BME280;1937;51.444;6.484;2023-07-29T10:44:54;70839.97;;;26.79;58.62
3844;BME280;1937;51.444;6.484;2023-07-29T10:47:22;70685.78;;;26.18;61.21
3844;BME280;1937;51.444;6.484;2023-07-29T10:49:50;70598.47;;;25.91;62.00
3844;BME280;1937;51.444;6.484;2023-07-29T10:52:28;70599.28;;;25.90;62.97
3844;BME280;1937;51.444;6.484;2023-07-29T10:54:56;70513.34;;;25.57;63.65
3844;BME280;1937;51.444;6.484;2023-07-29T10:57:31;70454.53;;;25.41;63.62
3844;BME280;1937;51.444;6.484;2023-07-29T11:00:00;70359.69;;;25.12;63.85
3844;BME280;1937;51.444;6.484;2023-07-29T11:02:29;70305.66;;;24.96;64.38
3844;BME280;1937;51.444;6.484;2023-07-29T11:04:57;70298.91;;;24.85;65.03
3844;BME280;1937;51.444;6.484;2023-07-29T11:07:24;70264.78;;;24.90;64.34
3844;BME280;1937;51.444;6.484;2023-07-29T11:09:59;70291.75;;;25.02;64.14
3844;BME280;1937;51.444;6.484;2023-07-29T11:12:36;70476.00;;;25.44;63.84
3844;BME280;1937;51.444;6.484;2023-07-29T11:15:12;70477.44;;;25.54;63.32
3844;BME280;1937;51.444;6.484;2023-07-29T11:17:41;70579.47;;;25.73;62.95
3844;BME280;1937;51.444;6.484;2023-07-29T11:20:09;70582.00;;;25.80;62.98
3844;BME280;1937;51.444;6.484;2023-07-29T11:22:37;70585.00;;;25.82;62.78
3844;BME280;1937;51.444;6.484;2023-07-29T11:25:04;70680.13;;;26.16;61.53
3844;BME280;1937;51.444;6.484;2023-07-29T11:27:32;70743.38;;;26.40;61.52
3844;BME280;1937;51.444;6.484;2023-07-29T11:29:59;71047.88;;;27.11;59.78
3844;BME280;1937;51.444;6.484;2023-07-29T11:32:28;71006.66;;;27.19;59.31
3844;BME280;1937;51.444;6.484;2023-07-29T11:34:55;71084.59;;;27.38;58.26
3844;BME280;1937;51.444;6.484;2023-07-29T11:37:21;71069.06;;;27.40;58.19
3844;BME280;1937;51.444;6.484;2023-07-29T11:39:48;70987.94;;;27.21;58.38
3844;BME280;1937;51.444;6.484;2023-07-29T11:42:14;70766.13;;;26.55;58.55
3844;BME280;1937;51.444;6.484;2023-07-29T11:44:41;70613.75;;;26.13;60.12
3844;BME280;1937;51.444;6.484;2023-07-29T11:47:08;70589.47;;;26.06;60.95
3844;BME280;1937;51.444;6.484;2023-07-29T11:49:39;70461.41;;;25.67;61.64
3844;BME280;1937;51.444;6.484;2023-07-29T11:52:07;70427.31;;;25.43;62.05
3844;BME280;1937;51.444;6.484;2023-07-29T11:54:35;70373.47;;;25.46;62.74
3844;BME280;1937;51.444;6.484;2023-07-29T11:57:03;70436.06;;;25.52;60.81
3844;BME280;1937;51.444;6.484;2023-07-29T11:59:31;70345.06;;;25.36;61.79
3844;BME280;1937;51.444;6.484;2023-07-29T12:02:00;70343.13;;;25.29;62.19
3844;BME280;1937;51.444;6.484;2023-07-29T12:04:27;70328.41;;;25.26;63.09
3844;BME280;1937;51.444;6.484;2023-07-29T12:06:55;70407.88;;;25.40;62.46
3844;BME280;1937;51.444;6.484;2023-07-29T12:09:22;70429.13;;;25.55;62.31
3844;BME280;1937;51.444;6.484;2023-07-29T12:11:49;70471.47;;;25.60;61.81
3844;BME280;1937;51.444;6.484;2023-07-29T12:14:17;70671.50;;;26.22;61.28
3844;BME280;1937;51.444;6.484;2023-07-29T12:16:44;70732.59;;;26.53;60.13
3844;BME280;1937;51.444;6.484;2023-07-29T12:19:12;70760.25;;;26.65;58.94
3844;BME280;1937;51.444;6.484;2023-07-29T12:21:39;70566.19;;;26.02;60.03
3844;BME280;1937;51.444;6.484;2023-07-29T12:24:08;70337.97;;;25.34;62.54
3844;BME280;1937;51.444;6.484;2023-07-29T12:26:35;70516.97;;;25.72;61.29
3844;BME280;1937;51.444;6.484;2023-07-29T12:29:11;70450.97;;;25.72;61.66
3844;BME280;1937;51.444;6.484;2023-07-29T12:31:38;70761.69;;;26.64;59.51
3844;BME280;1937;51.444;6.484;2023-07-29T12:34:04;70652.94;;;26.39;58.88
3844;BME280;1937;51.444;6.484;2023-07-29T12:36:42;70638.28;;;26.29;60.04
3844;BME280;1937;51.444;6.484;2023-07-29T12:39:17;70735.13;;;26.60;58.66
3844;BME280;1937;51.444;6.484;2023-07-29T12:41:44;70800.03;;;26.70;59.13
3844;BME280;1937;51.444;6.484;2023-07-29T12:44:11;70665.56;;;26.39;59.22
3844;BME280;1937;51.444;6.484;2023-07-29T12:46:38;70718.44;;;26.50;59.72
3844;BME280;1937;51.444;6.484;2023-07-29T12:49:04;70568.84;;;26.13;59.85
3844;BME280;1937;51.444;6.484;2023-07-29T12:51:31;70594.66;;;26.13;60.88
3844;BME280;1937;51.444;6.484;2023-07-29T12:53:58;70630.00;;;26.27;60.95
3844;BME280;1937;51.444;6.484;2023-07-29T12:56:26;70666.50;;;26.31;60.26
3844;BME280;1937;51.444;6.484;2023-07-29T12:58:52;70685.38;;;26.44;60.92
3844;BME280;1937;51.444;6.484;2023-07-29T13:01:19;70659.28;;;26.25;60.24
3844;BME280;1937;51.444;6.484;2023-07-29T13:03:45;70541.56;;;25.92;61.30
3844;BME280;1937;51.444;6.484;2023-07-29T13:06:12;70554.41;;;26.01;61.90
3844;BME280;1937;51.444;6.484;2023-07-29T13:08:39;70476.53;;;25.84;62.41
3844;BME280;1937;51.444;6.484;2023-07-29T13:11:05;70526.06;;;25.73;63.05
3844;BME280;1937;51.444;6.484;2023-07-29T13:13:33;70367.47;;;25.30;65.54
3844;BME280;1937;51.444;6.484;2023-07-29T13:16:00;70153.91;;;24.36;72.45
3844;BME280;1937;51.444;6.484;2023-07-29T13:18:26;69786.19;;;22.78;83.26
3844;BME280;1937;51.444;6.484;2023-07-29T13:20:53;69713.63;;;21.99;89.68
3844;BME280;1937;51.444;6.484;2023-07-29T13:23:20;69732.13;;;21.48;94.02